sensor_id;sensor_type;location;lat;lon;timestamp;temperature;humidity
19809;DHT22;48538;32.784;-96.802;2023-04-06T00:00:02;18.50;91.60
19809;DHT22;48538;32.784;-96.802;2023-04-06T00:02:30;18.30;90.70
19809;DHT22;48538;32.784;-96.802;2023-04-06T00:04:56;18.40;90.20
19809;DHT22;48538;32.784;-96.802;2023-04-06T00:07:23;18.40;90.70
19809;DHT22;48538;32.784;-96.802;2023-04-06T00:09:49;18.50;90.20
19809;DHT22;48538;32.784;-96.802;2023-04-06T00:12:16;18.30;90.30
19809;DHT22;48538;32.784;-96.802;2023-04-06T00:14:42;18.30;90.00
19809;DHT22;48538;32.784;-96.802;2023-04-06T00:17:08;18.40;90.30
19809;DHT22;48538;32.784;-96.802;2023-04-06T00:19:35;18.30;90.40
19809;DHT22;48538;32.784;-96.802;2023-04-06T00:22:01;18.30;90.60
19809;DHT22;48538;32.784;-96.802;2023-04-06T00:24:28;18.20;90.90
19809;DHT22;48538;32.784;-96.802;2023-04-06T00:26:54;18.10;91.40
19809;DHT22;48538;32.784;-96.802;2023-04-06T00:29:21;18.10;91.20
19809;DHT22;48538;32.784;-96.802;2023-04-06T00:31:47;18.10;91.00
19809;DHT22;48538;32.784;-96.802;2023-04-06T00:34:13;18.10;90.70
19809;DHT22;48538;32.784;-96.802;2023-04-06T00:36:41;18.00;89.50
19809;DHT22;48538;32.784;-96.802;2023-04-06T00:39:08;17.90;90.10
19809;DHT22;48538;32.784;-96.802;2023-04-06T00:41:34;17.90;90.10
19809;DHT22;48538;32.784;-96.802;2023-04-06T00:44:00;18.00;90.30
19809;DHT22;48538;32.784;-96.802;2023-04-06T00:46:27;17.80;90.40
19809;DHT22;48538;32.784;-96.802;2023-04-06T00:48:54;17.80;90.50
19809;DHT22;48538;32.784;-96.802;2023-04-06T00:51:20;17.80;90.60
19809;DHT22;48538;32.784;-96.802;2023-04-06T00:53:46;17.70;90.90
19809;DHT22;48538;32.784;-96.802;2023-04-06T00:56:13;17.70;91.00
19809;DHT22;48538;32.784;-96.802;2023-04-06T00:58:39;17.70;91.00
19809;DHT22;48538;32.784;-96.802;2023-04-06T01:01:06;17.70;90.60
19809;DHT22;48538;32.784;-96.802;2023-04-06T01:03:32;17.70;90.50
19809;DHT22;48538;32.784;-96.802;2023-04-06T01:05:59;17.60;89.70
19809;DHT22;48538;32.784;-96.802;2023-04-06T01:08:26;17.60;89.30
19809;DHT22;48538;32.784;-96.802;2023-04-06T01:10:52;17.60;89.10
19809;DHT22;48538;32.784;-96.802;2023-04-06T01:13:19;17.50;90.20
19809;DHT22;48538;32.784;-96.802;2023-04-06T01:15:46;17.50;90.10
19809;DHT22;48538;32.784;-96.802;2023-04-06T01:18:13;17.50;90.30
19809;DHT22;48538;32.784;-96.802;2023-04-06T01:20:39;17.40;90.30
19809;DHT22;48538;32.784;-96.802;2023-04-06T01:23:05;17.30;90.40
19809;DHT22;48538;32.784;-96.802;2023-04-06T01:25:32;17.30;90.70
19809;DHT22;48538;32.784;-96.802;2023-04-06T01:27:58;17.30;90.80
19809;DHT22;48538;32.784;-96.802;2023-04-06T01:30:24;17.30;91.00
19809;DHT22;48538;32.784;-96.802;2023-04-06T01:32:51;17.40;91.50
19809;DHT22;48538;32.784;-96.802;2023-04-06T01:35:18;17.40;91.00
19809;DHT22;48538;32.784;-96.802;2023-04-06T01:37:45;17.40;91.20
19809;DHT22;48538;32.784;-96.802;2023-04-06T01:40:11;17.30;91.40
19809;DHT22;48538;32.784;-96.802;2023-04-06T01:42:39;17.20;91.60
19809;DHT22;48538;32.784;-96.802;2023-04-06T01:45:06;17.20;91.90
19809;DHT22;48538;32.784;-96.802;2023-04-06T01:47:32;17.20;91.90
19809;DHT22;48538;32.784;-96.802;2023-04-06T01:49:58;17.20;91.90
19809;DHT22;48538;32.784;-96.802;2023-04-06T01:52:25;17.10;92.10
19809;DHT22;48538;32.784;-96.802;2023-04-06T01:54:51;17.10;92.50
19809;DHT22;48538;32.784;-96.802;2023-04-06T01:57:18;17.10;92.60
19809;DHT22;48538;32.784;-96.802;2023-04-06T01:59:44;17.10;92.70
19809;DHT22;48538;32.784;-96.802;2023-04-06T02:02:11;17.10;92.80
19809;DHT22;48538;32.784;-96.802;2023-04-06T02:04:38;17.00;92.60
19809;DHT22;48538;32.784;-96.802;2023-04-06T02:07:05;16.90;92.70
19809;DHT22;48538;32.784;-96.802;2023-04-06T02:09:31;16.90;92.90
19809;DHT22;48538;32.784;-96.802;2023-04-06T02:11:58;16.90;92.60
19809;DHT22;48538;32.784;-96.802;2023-04-06T02:14:25;16.90;92.20
19809;DHT22;48538;32.784;-96.802;2023-04-06T02:16:52;16.90;92.10
19809;DHT22;48538;32.784;-96.802;2023-04-06T02:19:18;16.90;92.20
19809;DHT22;48538;32.784;-96.802;2023-04-06T02:21:44;16.90;92.40
19809;DHT22;48538;32.784;-96.802;2023-04-06T02:24:11;16.90;92.30
19809;DHT22;48538;32.784;-96.802;2023-04-06T02:26:37;16.80;91.70
19809;DHT22;48538;32.784;-96.802;2023-04-06T02:29:03;16.80;92.30
19809;DHT22;48538;32.784;-96.802;2023-04-06T02:31:30;16.80;92.20
19809;DHT22;48538;32.784;-96.802;2023-04-06T02:33:56;16.70;92.10
19809;DHT22;48538;32.784;-96.802;2023-04-06T02:36:22;16.70;92.20
19809;DHT22;48538;32.784;-96.802;2023-04-06T02:38:49;16.70;92.30
19809;DHT22;48538;32.784;-96.802;2023-04-06T02:41:15;16.70;92.60
19809;DHT22;48538;32.784;-96.802;2023-04-06T02:43:41;16.70;92.40
19809;DHT22;48538;32.784;-96.802;2023-04-06T02:46:08;16.70;92.60
19809;DHT22;48538;32.784;-96.802;2023-04-06T02:48:34;16.60;92.40
19809;DHT22;48538;32.784;-96.802;2023-04-06T02:51:03;16.60;93.70
19809;DHT22;48538;32.784;-96.802;2023-04-06T02:53:29;16.60;92.90
19809;DHT22;48538;32.784;-96.802;2023-04-06T02:55:55;16.70;93.00
19809;DHT22;48538;32.784;-96.802;2023-04-06T02:58:22;16.60;92.90
19809;DHT22;48538;32.784;-96.802;2023-04-06T03:00:48;16.60;92.70
19809;DHT22;48538;32.784;-96.802;2023-04-06T03:03:14;16.60;92.80
19809;DHT22;48538;32.784;-96.802;2023-04-06T03:05:40;16.50;92.90
19809;DHT22;48538;32.784;-96.802;2023-04-06T03:08:07;16.50;92.90
19809;DHT22;48538;32.784;-96.802;2023-04-06T03:10:33;16.50;92.80
19809;DHT22;48538;32.784;-96.802;2023-04-06T03:12:59;16.50;93.00
19809;DHT22;48538;32.784;-96.802;2023-04-06T03:15:26;16.40;92.80
19809;DHT22;48538;32.784;-96.802;2023-04-06T03:17:52;16.40;92.80
19809;DHT22;48538;32.784;-96.802;2023-04-06T03:20:18;16.40;92.70
19809;DHT22;48538;32.784;-96.802;2023-04-06T03:22:47;16.40;92.40
19809;DHT22;48538;32.784;-96.802;2023-04-06T03:25:14;16.40;92.70
19809;DHT22;48538;32.784;-96.802;2023-04-06T03:27:40;16.30;92.80
19809;DHT22;48538;32.784;-96.802;2023-04-06T03:30:07;16.30;92.40
19809;DHT22;48538;32.784;-96.802;2023-04-06T03:32:33;16.20;93.00
19809;DHT22;48538;32.784;-96.802;2023-04-06T03:34:59;16.20;93.30
19809;DHT22;48538;32.784;-96.802;2023-04-06T03:37:26;16.10;93.40
19809;DHT22;48538;32.784;-96.802;2023-04-06T03:39:52;16.10;93.60
19809;DHT22;48538;32.784;-96.802;2023-04-06T03:42:19;16.00;93.50
19809;DHT22;48538;32.784;-96.802;2023-04-06T03:44:45;16.00;93.80
19809;DHT22;48538;32.784;-96.802;2023-04-06T03:47:11;16.00;94.30
19809;DHT22;48538;32.784;-96.802;2023-04-06T03:49:37;16.00;94.00
19809;DHT22;48538;32.784;-96.802;2023-04-06T03:52:04;16.10;94.00
19809;DHT22;48538;32.784;-96.802;2023-04-06T03:54:30;16.00;94.10
19809;DHT22;48538;32.784;-96.802;2023-04-06T03:56:57;16.00;94.60
19809;DHT22;48538;32.784;-96.802;2023-04-06T03:59:23;16.10;94.70
19809;DHT22;48538;32.784;-96.802;2023-04-06T04:01:49;16.10;94.60
19809;DHT22;48538;32.784;-96.802;2023-04-06T04:04:16;16.20;94.50
19809;DHT22;48538;32.784;-96.802;2023-04-06T04:06:45;16.30;93.50
19809;DHT22;48538;32.784;-96.802;2023-04-06T04:09:12;16.20;94.00
19809;DHT22;48538;32.784;-96.802;2023-04-06T04:11:47;16.20;94.10
19809;DHT22;48538;32.784;-96.802;2023-04-06T04:14:14;16.20;94.40
19809;DHT22;48538;32.784;-96.802;2023-04-06T04:16:40;16.10;94.30
19809;DHT22;48538;32.784;-96.802;2023-04-06T04:19:07;16.00;94.50
19809;DHT22;48538;32.784;-96.802;2023-04-06T04:21:41;16.00;94.70
19809;DHT22;48538;32.784;-96.802;2023-04-06T04:24:08;16.00;94.30
19809;DHT22;48538;32.784;-96.802;2023-04-06T04:26:34;15.90;94.10
19809;DHT22;48538;32.784;-96.802;2023-04-06T04:29:00;15.90;94.40
19809;DHT22;48538;32.784;-96.802;2023-04-06T04:31:27;15.80;94.50
19809;DHT22;48538;32.784;-96.802;2023-04-06T04:33:53;15.70;94.40
19809;DHT22;48538;32.784;-96.802;2023-04-06T04:36:19;15.60;94.40
19809;DHT22;48538;32.784;-96.802;2023-04-06T04:38:45;15.60;94.30
19809;DHT22;48538;32.784;-96.802;2023-04-06T04:41:12;15.50;94.20
19809;DHT22;48538;32.784;-96.802;2023-04-06T04:43:38;15.50;94.30
19809;DHT22;48538;32.784;-96.802;2023-04-06T04:46:07;15.40;94.60
19809;DHT22;48538;32.784;-96.802;2023-04-06T04:48:34;15.30;94.30
19809;DHT22;48538;32.784;-96.802;2023-04-06T04:51:00;15.30;94.20
19809;DHT22;48538;32.784;-96.802;2023-04-06T04:53:27;15.30;94.00
19809;DHT22;48538;32.784;-96.802;2023-04-06T04:55:53;15.20;94.20
19809;DHT22;48538;32.784;-96.802;2023-04-06T04:58:19;15.20;94.10
19809;DHT22;48538;32.784;-96.802;2023-04-06T05:00:46;15.10;94.10
19809;DHT22;48538;32.784;-96.802;2023-04-06T05:03:21;15.10;94.10
19809;DHT22;48538;32.784;-96.802;2023-04-06T05:05:48;15.00;93.80
19809;DHT22;48538;32.784;-96.802;2023-04-06T05:08:15;15.00;93.90
19809;DHT22;48538;32.784;-96.802;2023-04-06T05:10:41;15.00;93.20
19809;DHT22;48538;32.784;-96.802;2023-04-06T05:13:08;14.90;93.10
19809;DHT22;48538;32.784;-96.802;2023-04-06T05:15:34;14.90;93.20
19809;DHT22;48538;32.784;-96.802;2023-04-06T05:18:04;14.90;93.90
19809;DHT22;48538;32.784;-96.802;2023-04-06T05:20:31;14.90;93.30
19809;DHT22;48538;32.784;-96.802;2023-04-06T05:22:58;14.70;93.20
19809;DHT22;48538;32.784;-96.802;2023-04-06T05:25:24;14.60;93.30
19809;DHT22;48538;32.784;-96.802;2023-04-06T05:27:51;14.60;93.40
19809;DHT22;48538;32.784;-96.802;2023-04-06T05:30:17;14.70;93.10
19809;DHT22;48538;32.784;-96.802;2023-04-06T05:32:44;14.70;93.00
19809;DHT22;48538;32.784;-96.802;2023-04-06T05:35:10;14.70;93.10
19809;DHT22;48538;32.784;-96.802;2023-04-06T05:37:38;14.70;93.10
19809;DHT22;48538;32.784;-96.802;2023-04-06T05:40:05;14.80;93.00
19809;DHT22;48538;32.784;-96.802;2023-04-06T05:42:38;14.80;93.70
19809;DHT22;48538;32.784;-96.802;2023-04-06T05:45:08;14.70;93.70
19809;DHT22;48538;32.784;-96.802;2023-04-06T05:47:35;14.60;93.50
19809;DHT22;48538;32.784;-96.802;2023-04-06T05:50:01;14.60;93.50
19809;DHT22;48538;32.784;-96.802;2023-04-06T05:52:27;14.50;93.60
19809;DHT22;48538;32.784;-96.802;2023-04-06T05:54:54;14.50;93.80
19809;DHT22;48538;32.784;-96.802;2023-04-06T05:57:20;14.50;94.40
19809;DHT22;48538;32.784;-96.802;2023-04-06T05:59:47;14.60;94.30
19809;DHT22;48538;32.784;-96.802;2023-04-06T06:02:13;14.70;94.20
19809;DHT22;48538;32.784;-96.802;2023-04-06T06:04:39;14.60;94.20
19809;DHT22;48538;32.784;-96.802;2023-04-06T06:07:06;14.60;94.30
19809;DHT22;48538;32.784;-96.802;2023-04-06T06:09:34;14.60;94.50
19809;DHT22;48538;32.784;-96.802;2023-04-06T06:12:01;14.60;94.60
19809;DHT22;48538;32.784;-96.802;2023-04-06T06:14:27;14.60;94.30
19809;DHT22;48538;32.784;-96.802;2023-04-06T06:16:57;14.50;94.10
19809;DHT22;48538;32.784;-96.802;2023-04-06T06:19:23;14.50;94.20
19809;DHT22;48538;32.784;-96.802;2023-04-06T06:21:49;14.50;94.50
19809;DHT22;48538;32.784;-96.802;2023-04-06T06:24:16;14.40;94.30
19809;DHT22;48538;32.784;-96.802;2023-04-06T06:26:42;14.30;94.60
19809;DHT22;48538;32.784;-96.802;2023-04-06T06:29:09;14.40;94.60
19809;DHT22;48538;32.784;-96.802;2023-04-06T06:31:35;14.30;94.50
19809;DHT22;48538;32.784;-96.802;2023-04-06T06:34:02;14.30;94.90
19809;DHT22;48538;32.784;-96.802;2023-04-06T06:36:29;14.40;95.00
19809;DHT22;48538;32.784;-96.802;2023-04-06T06:38:57;14.40;94.80
19809;DHT22;48538;32.784;-96.802;2023-04-06T06:41:25;14.20;94.80
19809;DHT22;48538;32.784;-96.802;2023-04-06T06:43:52;14.10;95.20
19809;DHT22;48538;32.784;-96.802;2023-04-06T06:46:18;14.20;95.40
19809;DHT22;48538;32.784;-96.802;2023-04-06T06:48:44;14.20;95.30
19809;DHT22;48538;32.784;-96.802;2023-04-06T06:51:11;14.10;94.80
19809;DHT22;48538;32.784;-96.802;2023-04-06T06:53:37;14.20;95.00
19809;DHT22;48538;32.784;-96.802;2023-04-06T06:56:04;14.00;94.90
19809;DHT22;48538;32.784;-96.802;2023-04-06T06:58:30;14.00;94.50
19809;DHT22;48538;32.784;-96.802;2023-04-06T07:00:57;14.00;95.40
19809;DHT22;48538;32.784;-96.802;2023-04-06T07:03:24;13.90;95.10
19809;DHT22;48538;32.784;-96.802;2023-04-06T07:05:51;14.00;95.20
19809;DHT22;48538;32.784;-96.802;2023-04-06T07:08:21;13.90;95.10
19809;DHT22;48538;32.784;-96.802;2023-04-06T07:10:49;13.90;95.20
19809;DHT22;48538;32.784;-96.802;2023-04-06T07:13:16;13.80;95.40
19809;DHT22;48538;32.784;-96.802;2023-04-06T07:15:48;13.80;95.40
19809;DHT22;48538;32.784;-96.802;2023-04-06T07:18:14;13.70;95.30
19809;DHT22;48538;32.784;-96.802;2023-04-06T07:20:40;13.70;95.30
19809;DHT22;48538;32.784;-96.802;2023-04-06T07:23:07;13.80;95.50
19809;DHT22;48538;32.784;-96.802;2023-04-06T07:25:33;13.90;95.50
19809;DHT22;48538;32.784;-96.802;2023-04-06T07:27:59;14.00;95.40
19809;DHT22;48538;32.784;-96.802;2023-04-06T07:30:26;14.10;95.20
19809;DHT22;48538;32.784;-96.802;2023-04-06T07:32:54;14.00;94.90
19809;DHT22;48538;32.784;-96.802;2023-04-06T07:35:23;13.90;94.70
19809;DHT22;48538;32.784;-96.802;2023-04-06T07:37:50;13.90;94.60
19809;DHT22;48538;32.784;-96.802;2023-04-06T07:40:16;13.90;95.10
19809;DHT22;48538;32.784;-96.802;2023-04-06T07:42:42;13.90;94.90
19809;DHT22;48538;32.784;-96.802;2023-04-06T07:45:09;13.90;95.20
19809;DHT22;48538;32.784;-96.802;2023-04-06T07:47:35;13.80;94.50
19809;DHT22;48538;32.784;-96.802;2023-04-06T07:50:02;13.80;94.80
19809;DHT22;48538;32.784;-96.802;2023-04-06T07:52:28;13.80;94.70
19809;DHT22;48538;32.784;-96.802;2023-04-06T07:54:55;13.80;94.70
19809;DHT22;48538;32.784;-96.802;2023-04-06T07:57:21;13.60;94.70
19809;DHT22;48538;32.784;-96.802;2023-04-06T07:59:47;13.50;94.60
19809;DHT22;48538;32.784;-96.802;2023-04-06T08:02:14;13.60;94.80
19809;DHT22;48538;32.784;-96.802;2023-04-06T08:04:40;13.60;94.60
19809;DHT22;48538;32.784;-96.802;2023-04-06T08:07:06;13.50;94.70
19809;DHT22;48538;32.784;-96.802;2023-04-06T08:09:33;13.50;94.50
19809;DHT22;48538;32.784;-96.802;2023-04-06T08:11:59;13.60;94.90
19809;DHT22;48538;32.784;-96.802;2023-04-06T08:14:26;13.50;94.80
19809;DHT22;48538;32.784;-96.802;2023-04-06T08:16:52;13.60;94.80
19809;DHT22;48538;32.784;-96.802;2023-04-06T08:19:18;13.60;94.60
19809;DHT22;48538;32.784;-96.802;2023-04-06T08:21:45;13.70;94.70
19809;DHT22;48538;32.784;-96.802;2023-04-06T08:24:13;13.70;95.00
19809;DHT22;48538;32.784;-96.802;2023-04-06T08:26:40;13.60;94.60
19809;DHT22;48538;32.784;-96.802;2023-04-06T08:29:06;13.60;94.70
19809;DHT22;48538;32.784;-96.802;2023-04-06T08:31:37;13.30;94.10
19809;DHT22;48538;32.784;-96.802;2023-04-06T08:34:06;13.30;94.50
19809;DHT22;48538;32.784;-96.802;2023-04-06T08:36:32;13.30;94.90
19809;DHT22;48538;32.784;-96.802;2023-04-06T08:39:00;13.20;94.60
19809;DHT22;48538;32.784;-96.802;2023-04-06T08:41:27;13.20;95.10
19809;DHT22;48538;32.784;-96.802;2023-04-06T08:43:59;13.20;95.10
19809;DHT22;48538;32.784;-96.802;2023-04-06T08:46:26;13.20;95.50
19809;DHT22;48538;32.784;-96.802;2023-04-06T08:48:57;13.00;95.40
19809;DHT22;48538;32.784;-96.802;2023-04-06T08:51:24;13.00;95.40
19809;DHT22;48538;32.784;-96.802;2023-04-06T08:53:55;13.00;95.50
19809;DHT22;48538;32.784;-96.802;2023-04-06T08:56:23;12.90;95.80
19809;DHT22;48538;32.784;-96.802;2023-04-06T08:58:50;12.80;95.70
19809;DHT22;48538;32.784;-96.802;2023-04-06T09:01:21;12.80;95.90
19809;DHT22;48538;32.784;-96.802;2023-04-06T09:03:49;13.00;95.80
19809;DHT22;48538;32.784;-96.802;2023-04-06T09:06:16;13.00;95.70
19809;DHT22;48538;32.784;-96.802;2023-04-06T09:08:43;13.00;95.70
19809;DHT22;48538;32.784;-96.802;2023-04-06T09:11:09;12.90;95.80
19809;DHT22;48538;32.784;-96.802;2023-04-06T09:13:49;12.90;96.00
19809;DHT22;48538;32.784;-96.802;2023-04-06T09:16:16;12.90;95.80
19809;DHT22;48538;32.784;-96.802;2023-04-06T09:18:42;12.90;95.90
19809;DHT22;48538;32.784;-96.802;2023-04-06T09:21:09;12.90;96.20
19809;DHT22;48538;32.784;-96.802;2023-04-06T09:23:35;12.80;95.90
19809;DHT22;48538;32.784;-96.802;2023-04-06T09:26:17;12.80;95.90
19809;DHT22;48538;32.784;-96.802;2023-04-06T09:28:51;12.60;95.90
19809;DHT22;48538;32.784;-96.802;2023-04-06T09:31:23;12.60;96.20
19809;DHT22;48538;32.784;-96.802;2023-04-06T09:33:50;12.60;96.00
19809;DHT22;48538;32.784;-96.802;2023-04-06T09:36:18;12.60;96.30
19809;DHT22;48538;32.784;-96.802;2023-04-06T09:38:55;12.60;96.40
19809;DHT22;48538;32.784;-96.802;2023-04-06T09:41:29;12.60;96.40
19809;DHT22;48538;32.784;-96.802;2023-04-06T09:44:10;12.50;96.10
19809;DHT22;48538;32.784;-96.802;2023-04-06T09:46:41;12.50;96.50
19809;DHT22;48538;32.784;-96.802;2023-04-06T09:49:08;12.50;96.40
19809;DHT22;48538;32.784;-96.802;2023-04-06T09:51:45;12.50;96.50
19809;DHT22;48538;32.784;-96.802;2023-04-06T09:54:18;12.40;96.40
19809;DHT22;48538;32.784;-96.802;2023-04-06T09:56:47;12.40;96.60
19809;DHT22;48538;32.784;-96.802;2023-04-06T09:59:18;12.40;96.80
19809;DHT22;48538;32.784;-96.802;2023-04-06T10:01:48;12.30;96.90
19809;DHT22;48538;32.784;-96.802;2023-04-06T10:04:36;12.40;96.80
19809;DHT22;48538;32.784;-96.802;2023-04-06T10:07:04;12.40;96.90
19809;DHT22;48538;32.784;-96.802;2023-04-06T10:09:31;12.30;96.90
19809;DHT22;48538;32.784;-96.802;2023-04-06T10:12:05;12.40;96.40
19809;DHT22;48538;32.784;-96.802;2023-04-06T10:14:34;12.40;96.40
19809;DHT22;48538;32.784;-96.802;2023-04-06T10:17:04;12.40;96.40
19809;DHT22;48538;32.784;-96.802;2023-04-06T10:19:55;12.30;96.00
19809;DHT22;48538;32.784;-96.802;2023-04-06T10:25:06;12.20;96.10
19809;DHT22;48538;32.784;-96.802;2023-04-06T10:27:33;12.30;96.10
19809;DHT22;48538;32.784;-96.802;2023-04-06T10:30:04;12.30;96.70
19809;DHT22;48538;32.784;-96.802;2023-04-06T10:32:38;12.30;96.40
19809;DHT22;48538;32.784;-96.802;2023-04-06T10:35:11;12.20;96.20
19809;DHT22;48538;32.784;-96.802;2023-04-06T10:38:01;12.20;96.50
19809;DHT22;48538;32.784;-96.802;2023-04-06T10:40:28;12.20;96.60
19809;DHT22;48538;32.784;-96.802;2023-04-06T10:43:11;12.20;96.80
19809;DHT22;48538;32.784;-96.802;2023-04-06T10:45:39;12.20;96.80
19809;DHT22;48538;32.784;-96.802;2023-04-06T10:48:18;12.10;96.90
19809;DHT22;48538;32.784;-96.802;2023-04-06T10:50:47;12.20;97.00
19809;DHT22;48538;32.784;-96.802;2023-04-06T10:53:24;12.10;97.20
19809;DHT22;48538;32.784;-96.802;2023-04-06T10:55:52;12.00;97.30
19809;DHT22;48538;32.784;-96.802;2023-04-06T10:58:19;12.10;97.40
19809;DHT22;48538;32.784;-96.802;2023-04-06T11:00:46;12.10;97.50
19809;DHT22;48538;32.784;-96.802;2023-04-06T11:03:13;12.10;97.60
19809;DHT22;48538;32.784;-96.802;2023-04-06T11:05:44;12.10;97.80
19809;DHT22;48538;32.784;-96.802;2023-04-06T11:08:24;12.20;97.80
19809;DHT22;48538;32.784;-96.802;2023-04-06T11:10:51;12.10;98.00
19809;DHT22;48538;32.784;-96.802;2023-04-06T11:13:17;12.10;98.30
19809;DHT22;48538;32.784;-96.802;2023-04-06T11:15:43;12.10;98.40
19809;DHT22;48538;32.784;-96.802;2023-04-06T11:18:17;12.10;98.30
19809;DHT22;48538;32.784;-96.802;2023-04-06T11:20:48;11.90;98.50
19809;DHT22;48538;32.784;-96.802;2023-04-06T11:23:25;12.00;98.70
19809;DHT22;48538;32.784;-96.802;2023-04-06T11:25:52;12.00;99.00
19809;DHT22;48538;32.784;-96.802;2023-04-06T11:28:19;12.00;98.90
19809;DHT22;48538;32.784;-96.802;2023-04-06T11:30:47;11.80;99.00
19809;DHT22;48538;32.784;-96.802;2023-04-06T11:33:20;11.90;99.40
19809;DHT22;48538;32.784;-96.802;2023-04-06T11:35:48;11.90;99.40
19809;DHT22;48538;32.784;-96.802;2023-04-06T11:38:15;11.80;99.50
19809;DHT22;48538;32.784;-96.802;2023-04-06T11:40:41;11.80;99.90
19809;DHT22;48538;32.784;-96.802;2023-04-06T11:43:11;11.90;99.80
19809;DHT22;48538;32.784;-96.802;2023-04-06T11:45:43;12.00;99.60
19809;DHT22;48538;32.784;-96.802;2023-04-06T11:48:19;12.00;99.70
19809;DHT22;48538;32.784;-96.802;2023-04-06T11:50:48;11.80;99.90
19809;DHT22;48538;32.784;-96.802;2023-04-06T11:53:21;11.90;99.90
19809;DHT22;48538;32.784;-96.802;2023-04-06T11:55:47;12.00;99.90
19809;DHT22;48538;32.784;-96.802;2023-04-06T11:58:13;11.90;99.90
19809;DHT22;48538;32.784;-96.802;2023-04-06T12:00:40;11.70;99.90
19809;DHT22;48538;32.784;-96.802;2023-04-06T12:03:11;11.70;99.90
19809;DHT22;48538;32.784;-96.802;2023-04-06T12:05:38;11.70;99.90
19809;DHT22;48538;32.784;-96.802;2023-04-06T12:08:05;11.60;99.90
19809;DHT22;48538;32.784;-96.802;2023-04-06T12:10:31;11.60;99.90
19809;DHT22;48538;32.784;-96.802;2023-04-06T12:12:57;11.70;99.90
19809;DHT22;48538;32.784;-96.802;2023-04-06T12:15:24;11.80;99.90
19809;DHT22;48538;32.784;-96.802;2023-04-06T12:17:50;11.80;99.90
19809;DHT22;48538;32.784;-96.802;2023-04-06T12:20:16;11.90;99.90
19809;DHT22;48538;32.784;-96.802;2023-04-06T12:22:43;11.80;99.90
19809;DHT22;48538;32.784;-96.802;2023-04-06T12:25:09;11.80;99.90
19809;DHT22;48538;32.784;-96.802;2023-04-06T12:27:36;11.80;99.90
19809;DHT22;48538;32.784;-96.802;2023-04-06T12:30:02;11.80;99.90
19809;DHT22;48538;32.784;-96.802;2023-04-06T12:32:28;11.80;99.90
19809;DHT22;48538;32.784;-96.802;2023-04-06T12:34:55;11.90;99.90
19809;DHT22;48538;32.784;-96.802;2023-04-06T12:37:21;11.90;99.90
19809;DHT22;48538;32.784;-96.802;2023-04-06T12:39:47;12.00;99.90
19809;DHT22;48538;32.784;-96.802;2023-04-06T12:42:14;12.00;99.90
19809;DHT22;48538;32.784;-96.802;2023-04-06T12:44:40;12.00;99.90
19809;DHT22;48538;32.784;-96.802;2023-04-06T12:47:08;11.90;99.90
19809;DHT22;48538;32.784;-96.802;2023-04-06T12:49:34;11.90;99.90
19809;DHT22;48538;32.784;-96.802;2023-04-06T12:52:02;11.80;99.90
19809;DHT22;48538;32.784;-96.802;2023-04-06T12:54:29;11.80;99.90
19809;DHT22;48538;32.784;-96.802;2023-04-06T12:56:55;11.80;99.90
19809;DHT22;48538;32.784;-96.802;2023-04-06T12:59:22;11.90;99.90
19809;DHT22;48538;32.784;-96.802;2023-04-06T13:01:50;11.90;99.90
19809;DHT22;48538;32.784;-96.802;2023-04-06T13:04:18;12.00;99.90
19809;DHT22;48538;32.784;-96.802;2023-04-06T13:06:44;12.00;99.90
19809;DHT22;48538;32.784;-96.802;2023-04-06T13:09:11;12.00;99.90
19809;DHT22;48538;32.784;-96.802;2023-04-06T13:11:37;12.00;99.90
19809;DHT22;48538;32.784;-96.802;2023-04-06T13:14:04;12.00;99.90
19809;DHT22;48538;32.784;-96.802;2023-04-06T13:16:31;12.00;99.90
19809;DHT22;48538;32.784;-96.802;2023-04-06T13:18:57;12.00;99.90
19809;DHT22;48538;32.784;-96.802;2023-04-06T13:21:24;12.10;99.90
19809;DHT22;48538;32.784;-96.802;2023-04-06T13:23:50;12.00;99.90
19809;DHT22;48538;32.784;-96.802;2023-04-06T13:26:17;12.10;99.90
19809;DHT22;48538;32.784;-96.802;2023-04-06T13:28:43;12.10;99.90
19809;DHT22;48538;32.784;-96.802;2023-04-06T13:31:10;12.20;99.90
19809;DHT22;48538;32.784;-96.802;2023-04-06T13:33:36;12.20;99.90
19809;DHT22;48538;32.784;-96.802;2023-04-06T13:36:03;12.40;99.90
19809;DHT22;48538;32.784;-96.802;2023-04-06T13:38:29;12.40;99.90
19809;DHT22;48538;32.784;-96.802;2023-04-06T13:40:56;12.50;99.90
19809;DHT22;48538;32.784;-96.802;2023-04-06T13:43:22;12.60;99.90
19809;DHT22;48538;32.784;-96.802;2023-04-06T13:45:53;12.70;99.90
19809;DHT22;48538;32.784;-96.802;2023-04-06T13:48:21;12.60;99.90
19809;DHT22;48538;32.784;-96.802;2023-04-06T13:50:47;12.70;99.90
19809;DHT22;48538;32.784;-96.802;2023-04-06T13:53:14;12.80;99.90
19809;DHT22;48538;32.784;-96.802;2023-04-06T13:55:40;12.80;99.90
19809;DHT22;48538;32.784;-96.802;2023-04-06T13:58:06;12.80;99.90
19809;DHT22;48538;32.784;-96.802;2023-04-06T14:00:33;12.80;99.90
19809;DHT22;48538;32.784;-96.802;2023-04-06T14:02:59;12.90;99.90
19809;DHT22;48538;32.784;-96.802;2023-04-06T14:05:25;12.90;99.90
19809;DHT22;48538;32.784;-96.802;2023-04-06T14:07:53;13.00;99.90
19809;DHT22;48538;32.784;-96.802;2023-04-06T14:10:20;12.90;99.90
19809;DHT22;48538;32.784;-96.802;2023-04-06T14:12:49;12.90;99.90
19809;DHT22;48538;32.784;-96.802;2023-04-06T14:15:16;13.00;99.90
19809;DHT22;48538;32.784;-96.802;2023-04-06T14:17:42;13.10;99.90
19809;DHT22;48538;32.784;-96.802;2023-04-06T14:20:09;13.10;99.90
19809;DHT22;48538;32.784;-96.802;2023-04-06T14:22:40;13.00;99.90
19809;DHT22;48538;32.784;-96.802;2023-04-06T14:25:08;13.20;99.90
19809;DHT22;48538;32.784;-96.802;2023-04-06T14:27:35;13.20;99.90
19809;DHT22;48538;32.784;-96.802;2023-04-06T14:30:01;13.30;99.90
19809;DHT22;48538;32.784;-96.802;2023-04-06T14:32:28;13.20;99.90
19809;DHT22;48538;32.784;-96.802;2023-04-06T14:34:54;13.20;99.90
19809;DHT22;48538;32.784;-96.802;2023-04-06T14:37:20;13.40;99.90
19809;DHT22;48538;32.784;-96.802;2023-04-06T14:39:47;13.40;99.90
19809;DHT22;48538;32.784;-96.802;2023-04-06T14:42:14;13.50;99.90
19809;DHT22;48538;32.784;-96.802;2023-04-06T14:44:40;13.50;99.90
19809;DHT22;48538;32.784;-96.802;2023-04-06T14:47:09;13.50;99.90
19809;DHT22;48538;32.784;-96.802;2023-04-06T14:49:36;13.50;99.90
19809;DHT22;48538;32.784;-96.802;2023-04-06T14:52:02;13.40;99.90
19809;DHT22;48538;32.784;-96.802;2023-04-06T14:54:29;13.40;99.90
19809;DHT22;48538;32.784;-96.802;2023-04-06T14:56:55;13.40;99.90
19809;DHT22;48538;32.784;-96.802;2023-04-06T14:59:22;13.60;99.90
19809;DHT22;48538;32.784;-96.802;2023-04-06T15:01:48;13.60;99.90
19809;DHT22;48538;32.784;-96.802;2023-04-06T15:04:15;13.70;99.90
19809;DHT22;48538;32.784;-96.802;2023-04-06T15:06:41;13.80;99.90